Oregon, MO (64473)

12:05 AM CDT on September 17, 2019 (GMT -0500)
Ron Schneider MO Farm | | Change Station
Active Advisory: Flood Warning

Elev 837 ft 39.89 °N, 95.11 °W | Updated 22 minutes ago

Clear
Clear
76.1 °F
Feels Like 78 °F
N
0
Wind Variable Wind from SSE
Gusts 0.0 mph

Today
High -- | Low -- °F
--% Chance of Precip.
Yesterday
High -- | Low -- °F
Precip. -- in
Pressure 29.99 in
Visibility 9.0 miles
Clouds Clear
Heat Index 78 °F
Dew Point 65 °F
Humidity 69%
Rainfall 0.00 in
Snow Depth Not available.
7:03 AM 7:26 PM
Waning Gibbous, 92% visible
METAR KSTJ 170453Z AUTO 18005KT 9SM CLR 24/21 A3002 RMK AO2 SLP156 T02390206
Pressure 29.99 in
Visibility 9.0 miles
Clouds Clear
Heat Index 78 °F
Dew Point 65 °F
Humidity 69%
Rainfall 0.00 in
Snow Depth Not available.
7:03 AM 7:26 PM
Waning Gibbous, 92% visible
METAR KSTJ 170453Z AUTO 18005KT 9SM CLR 24/21 A3002 RMK AO2 SLP156 T02390206

Get Your Daily Forecast Email!

Thanks for signing up!

Be on the lookout for a verification email in your inbox.

You'll start receiving severe weather alerts in your inbox..

×

10-Day Weather Forecast

Almanac

Astronomy

Sep. 17, 2019 Rise Set
Actual Time
Civil Twilight
Nautical Twilight
Astronomical Twilight
Moon
Length of Visible Light
Length of Day
Tomorrow will be .
, % of the Moon is Illuminated

Today's Extremes

State Highs State Lows

Community

WunderPhotos

Category 6

Welcome to Category 6. This is the collective home for Weather Underground's featured writeups by Dr. Jeff Masters (right), Bob Henson (left), Chris Burt, and other regular contributors.

Nearby

Air Quality

  Air Quality AQ Index Pollutant
Not available.

Snow Depth

Station Depth Elevation

Earthquake Activity

City Distance Mag. Time & Date
Minimum magnitude displayed is 2.5.

Coastal Water Temperatures

Place Temperature

Stations

Nearby Weather Stations

Station Location Temp. Windchill Dew Point Humidity Wind Precip. Elev Updated Type
                   

Watches & Warnings

Flood Warning
Issued: 8:58 PM CDT Sep. 16, 2019 – National Weather Service

The Flood Warning continues for
the Missouri River at Rulo.
* At 8:45 PM Monday the stage was 19.2 feet... or 2.2 feet above
flood stage.
* Flood stage is 17.0 feet.
* Minor flooding is occurring and moderate flooding is forecast.
* Forecast... the river will continue rising to near 22.1 feet by
early Monday morning September 23, then start to slowly fall,
but remain above flood stage.


Lat... Lon 4026 9563 4026 9544 3991 9501 3982 9503
      3997 9536



Bcm